Time,TemperatureF,DewpointF,PressureIn,WindDirection,WindDirectionDegrees,WindSpeedMPH,WindSpeedGustMPH,Humidity,HourlyPrecipIn,Conditions,Clouds,dailyrainin,SoftwareType,DateUTC
2013-06-26 00:11:00,62.0,53.0,-100.00,South,180,1.0,2.0,72,-99.99,,,-99.99,,2013-06-26 07:11:00,
2013-06-26 00:21:00,62.0,53.0,-100.00,South,180,1.0,2.0,72,-99.99,,,-99.99,,2013-06-26 07:21:00,
2013-06-26 01:11:00,61.0,52.0,-100.00,NNW,348,3.0,4.0,71,-99.99,,,-99.99,,2013-06-26 08:11:00,
2013-06-26 01:42:00,60.0,51.0,-100.00,ENE,57,2.0,3.0,72,-99.99,,,-99.99,,2013-06-26 08:42:00,
2013-06-26 01:52:00,60.0,51.0,-100.00,ENE,65,1.0,3.0,72,-99.99,,,-99.99,,2013-06-26 08:52:00,
2013-06-26 02:11:00,59.0,50.0,-100.00,NE,34,0.0,2.0,73,-99.99,,,-99.99,,2013-06-26 09:11:00,
2013-06-26 02:43:00,59.0,50.0,-100.00,ENE,61,1.0,2.0,73,-99.99,,,-99.99,,2013-06-26 09:43:00,
2013-06-26 03:12:00,58.0,50.0,-100.00,North,5,2.0,3.0,75,-99.99,,,-99.99,,2013-06-26 10:12:00,
2013-06-26 03:22:00,58.0,50.0,-100.00,NW,304,1.0,2.0,75,-99.99,,,-99.99,,2013-06-26 10:22:00,
2013-06-26 03:34:00,57.0,49.0,-100.00,ESE,117,1.0,4.0,75,-99.99,,,-99.99,,2013-06-26 10:34:00,
2013-06-26 03:43:00,57.0,50.0,-100.00,NNE,30,2.0,3.0,77,-99.99,,,-99.99,,2013-06-26 10:43:00,
2013-06-26 04:11:00,56.0,49.0,-100.00,East,82,0.0,1.0,77,-99.99,,,-99.99,,2013-06-26 11:11:00,
2013-06-26 04:22:00,57.0,50.0,-100.00,North,2,0.0,2.0,78,-99.99,,,-99.99,,2013-06-26 11:22:00,
2013-06-26 04:43:00,57.0,50.0,-100.00,North,357,3.0,4.0,78,-99.99,,,-99.99,,2013-06-26 11:43:00,
2013-06-26 05:11:00,57.0,50.0,-100.00,North,356,3.0,4.0,78,-99.99,,,-99.99,,2013-06-26 12:11:00,
2013-06-26 05:22:00,57.0,49.0,-100.00,NNE,12,2.0,3.0,75,-99.99,,,-99.99,,2013-06-26 12:22:00,
2013-06-26 05:42:00,57.0,50.0,-100.00,NNW,329,1.0,3.0,76,-99.99,,,-99.99,,2013-06-26 12:42:00,
2013-06-26 06:11:00,55.0,48.0,-100.00,ENE,63,0.0,2.0,77,-99.99,,,-99.99,,2013-06-26 13:11:00,
2013-06-26 06:22:00,55.0,48.0,-100.00,NNE,23,1.0,2.0,77,-99.99,,,-99.99,,2013-06-26 13:22:00,
2013-06-26 06:42:00,56.0,49.0,-100.00,NNE,32,1.0,2.0,77,-99.99,,,-99.99,,2013-06-26 13:42:00,
2013-06-26 07:11:00,56.0,49.0,-100.00,SSE,154,1.0,3.0,76,-99.99,,,-99.99,,2013-06-26 14:11:00,
2013-06-26 07:23:00,56.0,49.0,-100.00,South,181,2.0,4.0,76,-99.99,,,-99.99,,2013-06-26 14:23:00,
2013-06-26 07:42:00,63.0,50.0,-100.00,SSE,166,0.0,2.0,63,-99.99,,,-99.99,,2013-06-26 14:42:00,
2013-06-26 09:11:00,80.0,47.0,-100.00,South,187,4.0,7.0,32,-99.99,,,-99.99,,2013-06-26 16:11:00,
2013-06-26 09:22:00,82.0,47.0,-100.00,South,187,5.0,7.0,30,-99.99,,,-99.99,,2013-06-26 16:22:00,
2013-06-26 09:43:00,84.0,47.0,-100.00,South,180,6.0,9.0,28,-99.99,,,-99.99,,2013-06-26 16:43:00,
2013-06-26 10:11:00,85.0,48.0,-100.00,South,178,7.0,11.0,28,-99.99,,,-99.99,,2013-06-26 17:11:00,
2013-06-26 10:23:00,85.0,48.0,-100.00,South,181,9.0,13.0,28,-99.99,,,-99.99,,2013-06-26 17:23:00,
2013-06-26 10:43:00,85.0,49.0,-100.00,South,178,9.0,13.0,29,-99.99,,,-99.99,,2013-06-26 17:43:00,
2013-06-26 10:52:00,85.0,49.0,-100.00,South,178,9.0,13.0,29,-99.99,,,-99.99,,2013-06-26 17:52:00,
2013-06-26 11:11:00,86.0,49.0,-100.00,South,172,8.0,12.0,28,-99.99,,,-99.99,,2013-06-26 18:11:00,
2013-06-26 11:22:00,86.0,49.0,-100.00,South,182,9.0,12.0,28,-99.99,,,-99.99,,2013-06-26 18:22:00,
2013-06-26 11:42:00,87.0,48.0,-100.00,South,176,8.0,13.0,26,-99.99,,,-99.99,,2013-06-26 18:42:00,
2013-06-26 11:52:00,88.0,48.0,-100.00,SSE,163,5.0,11.0,25,-99.99,,,-99.99,,2013-06-26 18:52:00,
2013-06-26 12:22:00,88.0,48.0,-100.00,SE,139,7.0,15.0,25,-99.99,,,-99.99,,2013-06-26 19:22:00,
2013-06-26 13:01:00,89.0,46.0,-100.00,South,187,9.0,15.0,23,-99.99,,,-99.99,,2013-06-26 20:01:00,
2013-06-26 13:22:00,89.0,46.0,-100.00,WSW,242,6.0,14.0,23,-99.99,,,-99.99,,2013-06-26 20:22:00,
2013-06-26 13:33:00,90.0,46.0,-100.00,South,183,7.0,17.0,22,-99.99,,,-99.99,,2013-06-26 20:33:00,
2013-06-26 13:43:00,91.0,47.0,-100.00,SW,223,6.0,13.0,22,-99.99,,,-99.99,,2013-06-26 20:43:00,
2013-06-26 14:01:00,91.0,47.0,-100.00,WSW,256,7.0,17.0,22,-99.99,,,-99.99,,2013-06-26 21:01:00,
2013-06-26 14:11:00,91.0,47.0,-100.00,WSW,239,8.0,16.0,22,-99.99,,,-99.99,,2013-06-26 21:11:00,
2013-06-26 14:23:00,91.0,47.0,-100.00,WSW,246,9.0,17.0,22,-99.99,,,-99.99,,2013-06-26 21:23:00,
2013-06-26 14:43:00,91.0,48.0,-100.00,West,260,6.0,15.0,23,-99.99,,,-99.99,,2013-06-26 21:43:00,
2013-06-26 15:11:00,90.0,48.0,-100.00,WNW,296,8.0,18.0,24,-99.99,,,-99.99,,2013-06-26 22:11:00,
2013-06-26 15:43:00,91.0,49.0,-100.00,WNW,295,7.0,12.0,24,-99.99,,,-99.99,,2013-06-26 22:43:00,
2013-06-26 15:52:00,91.0,49.0,-100.00,WNW,295,7.0,12.0,24,-99.99,,,-99.99,,2013-06-26 22:52:00,
2013-06-26 16:01:00,91.0,48.0,-100.00,West,275,6.0,11.0,23,-99.99,,,-99.99,,2013-06-26 23:01:00,
2013-06-26 16:11:00,91.0,48.0,-100.00,WNW,289,9.0,13.0,23,-99.99,,,-99.99,,2013-06-26 23:11:00,
2013-06-26 16:22:00,91.0,48.0,-100.00,WNW,288,10.0,17.0,23,-99.99,,,-99.99,,2013-06-26 23:22:00,
2013-06-26 16:43:00,90.0,47.0,-100.00,WNW,283,7.0,13.0,23,-99.99,,,-99.99,,2013-06-26 23:43:00,
2013-06-26 16:52:00,90.0,47.0,-100.00,West,278,9.0,15.0,23,-99.99,,,-99.99,,2013-06-26 23:52:00,
2013-06-26 17:01:00,91.0,48.0,-100.00,WNW,287,9.0,14.0,23,-99.99,,,-99.99,,2013-06-27 00:01:00,
2013-06-26 17:11:00,91.0,48.0,-100.00,WNW,287,9.0,14.0,23,-99.99,,,-99.99,,2013-06-27 00:11:00,
2013-06-26 17:22:00,90.0,47.0,-100.00,West,281,9.0,16.0,23,-99.99,,,-99.99,,2013-06-27 00:22:00,
2013-06-26 18:11:00,89.0,47.0,-100.00,NW,311,8.0,13.0,24,-99.99,,,-99.99,,2013-06-27 01:11:00,
2013-06-26 18:21:00,89.0,47.0,-100.00,NW,312,8.0,13.0,24,-99.99,,,-99.99,,2013-06-27 01:21:00,
2013-06-26 18:42:00,87.0,48.0,-100.00,NW,309,8.0,13.0,26,-99.99,,,-99.99,,2013-06-27 01:42:00,
2013-06-26 18:52:00,87.0,49.0,-100.00,NW,316,8.0,14.0,27,-99.99,,,-99.99,,2013-06-27 01:52:00,
2013-06-26 19:11:00,86.0,49.0,-100.00,NNW,330,7.0,11.0,28,-99.99,,,-99.99,,2013-06-27 02:11:00,
2013-06-26 19:22:00,86.0,49.0,-100.00,NNW,334,6.0,12.0,28,-99.99,,,-99.99,,2013-06-27 02:22:00,
2013-06-26 19:42:00,84.0,50.0,-100.00,NW,311,6.0,9.0,31,-99.99,,,-99.99,,2013-06-27 02:42:00,
2013-06-26 19:52:00,83.0,50.0,-100.00,WNW,293,6.0,11.0,32,-99.99,,,-99.99,,2013-06-27 02:52:00,
2013-06-26 20:11:00,82.0,50.0,-100.00,WSW,253,7.0,11.0,33,-99.99,,,-99.99,,2013-06-27 03:11:00,
2013-06-26 20:21:00,81.0,50.0,-100.00,West,259,6.0,8.0,34,-99.99,,,-99.99,,2013-06-27 03:21:00,
2013-06-26 20:52:00,78.0,50.0,-100.00,WNW,299,6.0,10.0,38,-99.99,,,-99.99,,2013-06-27 03:52:00,
2013-06-26 21:11:00,77.0,51.0,-100.00,NW,317,4.0,9.0,40,-99.99,,,-99.99,,2013-06-27 04:11:00,
2013-06-26 21:22:00,76.0,51.0,-100.00,North,8,2.0,6.0,41,-99.99,,,-99.99,,2013-06-27 04:22:00,
2013-06-26 21:42:00,76.0,51.0,-100.00,NNE,14,3.0,4.0,41,-99.99,,,-99.99,,2013-06-27 04:42:00,
2013-06-26 22:11:00,74.0,50.0,-100.00,SW,214,2.0,4.0,43,-99.99,,,-99.99,,2013-06-27 05:11:00,
2013-06-26 22:21:00,73.0,50.0,-100.00,SSW,201,3.0,5.0,45,-99.99,,,-99.99,,2013-06-27 05:21:00,
2013-06-26 22:32:00,73.0,50.0,-100.00,SSW,206,2.0,6.0,45,-99.99,,,-99.99,,2013-06-27 05:32:00,
2013-06-26 22:42:00,72.0,51.0,-100.00,NW,309,1.0,2.0,47,-99.99,,,-99.99,,2013-06-27 05:42:00,
2013-06-26 22:53:00,71.0,50.0,-100.00,North,9,2.0,4.0,48,-99.99,,,-99.99,,2013-06-27 05:53:00,
2013-06-26 23:12:00,70.0,50.0,-100.00,North,5,4.0,5.0,49,-99.99,,,-99.99,,2013-06-27 06:12:00,
2013-06-26 23:22:00,70.0,50.0,-100.00,North,4,2.0,5.0,49,-99.99,,,-99.99,,2013-06-27 06:22:00,
2013-06-26 23:53:00,69.0,48.0,-100.00,WNW,300,2.0,3.0,47,-99.99,,,-99.99,,2013-06-27 06:53:00,